createdAt,value
2022-11-16T00:01:11.659Z,17.08
2022-11-16T00:03:37.852Z,21.27
2022-11-16T00:06:05.749Z,20.33
2022-11-16T00:08:34.464Z,18.25
2022-11-16T00:11:09.492Z,17.80
2022-11-16T00:13:36.690Z,16.85
2022-11-16T00:16:03.500Z,16.67
2022-11-16T00:18:29.936Z,16.10
2022-11-16T00:20:56.021Z,19.73
2022-11-16T00:23:22.370Z,16.40
2022-11-16T00:25:48.409Z,16.23
2022-11-16T00:28:14.479Z,16.30
2022-11-16T00:30:40.202Z,15.85
2022-11-16T00:33:07.568Z,17.00
2022-11-16T00:35:39.895Z,18.27
2022-11-16T00:38:06.199Z,17.42
2022-11-16T00:40:32.087Z,17.00
2022-11-16T00:42:57.756Z,20.80
2022-11-16T00:45:23.704Z,17.33
2022-11-16T00:47:49.423Z,18.38
2022-11-16T00:50:15.301Z,17.48
2022-11-16T00:52:40.973Z,16.85
2022-11-16T00:55:06.991Z,19.23
2022-11-16T00:57:32.677Z,17.50
2022-11-16T00:59:58.744Z,16.45
2022-11-16T01:02:24.520Z,15.38
2022-11-16T01:04:50.279Z,19.25
2022-11-16T01:07:16.082Z,17.25
2022-11-16T01:09:41.786Z,17.95
2022-11-16T01:12:09.062Z,16.27
2022-11-16T01:14:40.310Z,18.52
2022-11-16T01:17:06.555Z,16.98
2022-11-16T01:19:32.571Z,18.98
2022-11-16T01:21:58.722Z,17.42
2022-11-16T01:24:25.428Z,20.15
2022-11-16T01:26:51.519Z,15.80
2022-11-16T01:29:17.235Z,16.73
2022-11-16T01:31:42.918Z,18.35
2022-11-16T01:34:08.930Z,18.90
2022-11-16T01:36:36.027Z,15.90
2022-11-16T01:39:03.830Z,20.15
2022-11-16T01:41:29.958Z,18.80
2022-11-16T01:44:05.338Z,16.63
2022-11-16T01:46:31.710Z,19.88
2022-11-16T01:49:08.528Z,16.17
2022-11-16T01:51:34.534Z,19.08
2022-11-16T01:54:04.487Z,18.80
2022-11-16T01:56:32.147Z,18.30
2022-11-16T01:58:58.018Z,17.42
2022-11-16T02:01:23.787Z,16.08
2022-11-16T02:03:49.604Z,16.60
2022-11-16T02:06:29.803Z,16.17
2022-11-16T02:09:45.125Z,18.63
2022-11-16T02:12:40.136Z,17.05
2022-11-16T02:15:20.597Z,19.30
2022-11-16T02:18:17.470Z,20.35
2022-11-16T02:21:03.249Z,19.77
2022-11-16T02:26:33.709Z,19.88
2022-11-16T02:29:29.303Z,17.27
2022-11-16T02:32:22.866Z,18.40
2022-11-16T02:35:04.041Z,19.30
2022-11-16T02:37:35.103Z,21.02
2022-11-16T02:40:06.067Z,22.42
2022-11-16T02:42:40.320Z,23.25
2022-11-16T02:45:09.360Z,25.02
2022-11-16T02:47:37.256Z,24.58
2022-11-16T02:50:14.282Z,22.83
2022-11-16T02:52:39.970Z,20.33
2022-11-16T02:55:06.510Z,25.98
2022-11-16T02:57:52.988Z,23.80
2022-11-16T03:00:25.077Z,22.83
2022-11-16T03:03:12.304Z,20.63
2022-11-16T03:05:44.552Z,23.83
2022-11-16T03:08:31.541Z,20.75
2022-11-16T03:11:20.211Z,26.67
2022-11-16T03:13:47.839Z,22.90
2022-11-16T03:16:40.541Z,21.25
2022-11-16T03:19:10.437Z,22.50
2022-11-16T03:21:47.656Z,23.13
2022-11-16T03:24:14.371Z,22.88
2022-11-16T03:27:02.501Z,24.70
2022-11-16T03:29:31.958Z,21.73
2022-11-16T03:32:18.240Z,25.02
2022-11-16T03:34:56.071Z,23.23
2022-11-16T03:37:24.324Z,22.13
2022-11-16T03:39:52.147Z,20.98
2022-11-16T03:42:21.626Z,26.17
2022-11-16T03:44:48.856Z,22.48
2022-11-16T03:47:14.952Z,22.00
2022-11-16T03:49:47.413Z,22.75
2022-11-16T03:52:15.456Z,22.52
2022-11-16T03:54:41.217Z,21.92
2022-11-16T03:57:06.914Z,19.33
2022-11-16T03:59:33.152Z,20.42
2022-11-16T04:01:58.918Z,23.45
2022-11-16T04:04:43.231Z,23.35
2022-11-16T04:07:27.531Z,21.83
2022-11-16T04:10:12.067Z,23.00
2022-11-16T04:13:01.266Z,22.00
2022-11-16T04:15:45.755Z,21.23
2022-11-16T04:18:30.116Z,23.63
2022-11-16T04:21:15.177Z,23.90
2022-11-16T04:24:00.095Z,21.17
2022-11-16T04:26:44.927Z,23.30
2022-11-16T04:29:12.516Z,20.92
2022-11-16T04:34:41.457Z,22.33
2022-11-16T04:37:36.344Z,19.45
2022-11-16T04:40:03.333Z,20.65
2022-11-16T04:42:29.106Z,21.63
2022-11-16T04:45:13.152Z,22.98
2022-11-16T04:47:38.899Z,22.50
2022-11-16T04:50:05.365Z,21.33
2022-11-16T04:52:31.193Z,21.05
2022-11-16T04:54:57.107Z,21.38
2022-11-16T04:57:23.108Z,21.05
2022-11-16T04:59:48.790Z,22.67
2022-11-16T05:02:14.601Z,18.90
2022-11-16T05:04:42.771Z,22.60
2022-11-16T05:07:11.420Z,21.02
2022-11-16T05:09:45.753Z,19.05
2022-11-16T05:12:17.436Z,16.73
2022-11-16T05:14:43.613Z,20.30
2022-11-16T05:17:09.510Z,21.05
2022-11-16T05:19:53.782Z,18.75
2022-11-16T05:22:19.571Z,21.58
2022-11-16T05:24:45.278Z,24.73
2022-11-16T05:27:13.487Z,21.75
2022-11-16T05:29:39.738Z,20.17
2022-11-16T05:32:06.685Z,22.08
2022-11-16T05:34:33.373Z,21.10
2022-11-16T05:36:59.423Z,20.95
2022-11-16T05:39:25.445Z,21.17
2022-11-16T05:41:52.033Z,21.75
2022-11-16T05:44:17.802Z,21.33
2022-11-16T05:46:44.662Z,21.55
2022-11-16T05:49:11.589Z,22.92
2022-11-16T05:51:41.831Z,22.30
2022-11-16T05:54:08.030Z,21.65
2022-11-16T05:56:34.580Z,20.77
2022-11-16T05:59:00.607Z,24.88
2022-11-16T06:01:26.360Z,22.45
2022-11-16T06:03:52.599Z,24.00
2022-11-16T06:06:19.565Z,21.83
2022-11-16T06:08:45.612Z,17.77
2022-11-16T06:11:12.140Z,26.67
2022-11-16T06:13:38.340Z,18.45
2022-11-16T06:16:04.414Z,22.25
2022-11-16T06:18:30.918Z,18.02
2022-11-16T06:20:56.783Z,19.85
2022-11-16T06:23:22.520Z,19.02
2022-11-16T06:25:54.680Z,18.73
2022-11-16T06:28:21.192Z,18.80
2022-11-16T06:30:47.633Z,16.92
2022-11-16T06:33:13.565Z,20.58
2022-11-16T06:35:39.262Z,19.10
2022-11-16T06:38:04.988Z,19.95
2022-11-16T06:40:31.953Z,20.48
2022-11-16T06:42:58.079Z,17.77
2022-11-16T06:45:24.806Z,20.13
2022-11-16T06:47:50.617Z,18.38
2022-11-16T06:50:18.521Z,20.45
2022-11-16T06:52:48.769Z,18.38
2022-11-16T06:55:15.904Z,17.80
2022-11-16T06:57:41.777Z,18.63
2022-11-16T07:00:09.708Z,18.85
2022-11-16T07:02:37.312Z,19.75
2022-11-16T07:07:30.090Z,18.63
2022-11-16T07:09:55.816Z,17.42
2022-11-16T07:12:21.521Z,37.33
2022-11-16T07:14:47.327Z,19.33
2022-11-16T07:17:13.102Z,19.58
2022-11-16T07:19:39.345Z,21.08
2022-11-16T07:22:05.827Z,19.17
2022-11-16T07:24:32.071Z,20.38
2022-11-16T07:26:57.824Z,21.63
2022-11-16T07:29:23.848Z,18.85
2022-11-16T07:31:49.839Z,17.23
2022-11-16T07:34:15.666Z,20.27
2022-11-16T07:36:41.412Z,18.85
2022-11-16T07:39:08.646Z,20.73
2022-11-16T07:41:34.691Z,17.95
2022-11-16T07:44:00.642Z,20.77
2022-11-16T07:51:40.159Z,24.27
2022-11-16T07:54:05.875Z,20.60
2022-11-16T07:56:31.718Z,25.08
2022-11-16T07:58:58.457Z,21.70
2022-11-16T08:01:24.489Z,18.85
2022-11-16T08:03:52.930Z,19.85
2022-11-16T08:06:26.580Z,20.05
2022-11-16T08:11:24.685Z,20.27
2022-11-16T08:13:50.426Z,18.73
2022-11-16T08:16:18.954Z,23.38
2022-11-16T08:18:44.961Z,18.27
2022-11-16T08:21:13.139Z,18.95
2022-11-16T08:23:40.683Z,19.73
2022-11-16T08:28:35.897Z,16.42
2022-11-16T08:31:08.481Z,18.02
2022-11-16T08:33:34.221Z,18.75
2022-11-16T08:36:08.144Z,21.10
2022-11-16T08:38:37.201Z,19.30
2022-11-16T08:41:03.239Z,20.27
2022-11-16T08:43:30.297Z,23.48
2022-11-16T08:45:56.790Z,20.30
2022-11-16T08:48:22.523Z,16.63
2022-11-16T08:51:15.953Z,18.75
2022-11-16T08:53:34.251Z,16.85
2022-11-16T08:56:08.276Z,17.40
2022-11-16T08:58:35.939Z,16.25
2022-11-16T09:01:10.296Z,19.38
2022-11-16T09:03:38.168Z,16.58
2022-11-16T09:06:04.435Z,17.73
2022-11-16T09:08:30.883Z,17.30
2022-11-16T09:10:56.837Z,15.75
2022-11-16T09:13:22.568Z,18.20
2022-11-16T09:15:55.401Z,16.05
2022-11-16T09:18:21.133Z,16.90
2022-11-16T09:20:47.050Z,17.13
2022-11-16T09:23:12.748Z,17.80
2022-11-16T09:25:38.454Z,15.98
2022-11-16T09:28:04.370Z,17.83
2022-11-16T09:30:30.705Z,16.00
2022-11-16T09:32:58.511Z,20.20
2022-11-16T09:35:24.356Z,17.98
2022-11-16T09:37:50.396Z,19.73
2022-11-16T09:40:16.294Z,17.90
2022-11-16T09:42:57.753Z,19.23
2022-11-16T09:45:36.348Z,18.75
2022-11-16T09:48:11.292Z,17.83
2022-11-16T09:50:58.739Z,18.38
2022-11-16T09:53:36.586Z,18.13
2022-11-16T09:56:06.884Z,17.88
2022-11-16T09:59:05.971Z,17.67
2022-11-16T10:01:47.419Z,18.73
2022-11-16T10:04:16.696Z,16.83
2022-11-16T10:06:52.639Z,20.05
2022-11-16T10:09:19.008Z,17.00
2022-11-16T10:12:16.712Z,17.10
2022-11-16T10:15:04.189Z,16.85
2022-11-16T10:17:45.315Z,22.55
2022-11-16T10:20:17.181Z,16.27
2022-11-16T10:22:57.678Z,19.02
2022-11-16T10:25:31.036Z,16.23
2022-11-16T10:28:09.341Z,17.08
2022-11-16T10:30:44.456Z,19.70
2022-11-16T10:33:16.057Z,17.58
2022-11-16T10:35:53.414Z,16.05
2022-11-16T10:38:27.673Z,24.17
2022-11-16T10:41:17.021Z,19.50
2022-11-16T10:43:44.155Z,21.63
2022-11-16T10:46:26.148Z,16.15
2022-11-16T10:49:02.930Z,17.50
2022-11-16T10:51:31.588Z,16.27
2022-11-16T10:53:57.280Z,19.52
2022-11-16T10:56:36.800Z,17.65
2022-11-16T11:01:49.947Z,16.02
2022-11-16T11:04:24.184Z,16.38
2022-11-16T11:06:55.382Z,14.70
2022-11-16T11:09:34.779Z,18.27
2022-11-16T11:12:29.684Z,16.65
2022-11-16T11:15:10.719Z,14.77
2022-11-16T11:17:38.548Z,18.15
2022-11-16T11:20:06.043Z,14.05
2022-11-16T11:22:34.756Z,18.65
2022-11-16T11:25:02.805Z,16.48
2022-11-16T11:27:34.064Z,15.40
2022-11-16T11:30:00.824Z,13.70
2022-11-16T11:32:39.334Z,16.38
2022-11-16T11:35:06.005Z,15.20
2022-11-16T11:37:35.952Z,13.57
2022-11-16T11:40:21.897Z,17.27
2022-11-16T11:43:02.227Z,16.55
2022-11-16T11:45:53.891Z,14.15
2022-11-16T11:50:58.160Z,16.90
2022-11-16T11:53:57.561Z,13.93
2022-11-16T11:56:25.585Z,12.73
2022-11-16T11:58:52.036Z,11.55
2022-11-16T12:01:49.790Z,12.38
2022-11-16T12:07:29.620Z,11.85
2022-11-16T12:10:16.874Z,12.95
2022-11-16T12:12:59.592Z,12.30
2022-11-16T12:15:28.264Z,11.55
2022-11-16T12:18:50.502Z,11.55
2022-11-16T12:21:39.941Z,10.75
2022-11-16T12:24:36.269Z,10.43
2022-11-16T12:27:48.662Z,10.93
2022-11-16T12:30:18.367Z,10.68
2022-11-16T12:33:04.220Z,10.48
2022-11-16T12:35:38.952Z,12.00
2022-11-16T12:38:32.270Z,11.00
2022-11-16T12:41:04.050Z,10.48
2022-11-16T12:43:55.218Z,10.77
2022-11-16T12:47:18.077Z,11.00
2022-11-16T12:49:59.128Z,11.43
2022-11-16T12:52:50.271Z,10.50
2022-11-16T12:55:29.264Z,11.35
2022-11-16T12:58:39.073Z,10.15
2022-11-16T13:03:54.742Z,10.55
2022-11-16T13:06:28.016Z,10.50
2022-11-16T13:09:07.550Z,12.00
2022-11-16T13:14:11.819Z,10.38
2022-11-16T13:16:37.802Z,12.52
2022-11-16T13:19:06.613Z,12.88
2022-11-16T13:21:37.937Z,13.10
2022-11-16T13:24:18.859Z,11.70
2022-11-16T13:26:56.166Z,12.52
2022-11-16T13:29:31.293Z,13.07
2022-11-16T13:32:16.286Z,13.18
2022-11-16T13:34:42.833Z,12.07
2022-11-16T13:37:33.165Z,10.18
2022-11-16T13:39:58.933Z,8.73
2022-11-16T13:42:25.784Z,10.38
2022-11-16T13:44:52.762Z,12.40
2022-11-16T13:47:29.651Z,14.75
2022-11-16T13:49:58.912Z,12.05
2022-11-16T13:53:36.505Z,11.02
2022-11-16T13:55:37.830Z,10.65
2022-11-16T13:58:05.661Z,10.60
2022-11-16T14:00:40.959Z,11.93
2022-11-16T14:03:15.808Z,12.70
2022-11-16T14:05:47.011Z,10.48
2022-11-16T14:08:18.562Z,10.48
2022-11-16T14:10:44.197Z,10.63
2022-11-16T14:13:46.486Z,11.65
2022-11-16T14:16:20.957Z,13.88
2022-11-16T14:18:51.149Z,12.88
2022-11-16T14:21:19.963Z,14.10
2022-11-16T14:23:58.418Z,13.95
2022-11-16T14:27:04.453Z,15.75
2022-11-16T14:29:54.996Z,13.57
2022-11-16T14:32:27.952Z,10.73
2022-11-16T14:34:56.374Z,6.07
2022-11-16T14:37:21.965Z,6.68
2022-11-16T14:39:49.586Z,6.15
2022-11-16T14:42:19.222Z,9.20
2022-11-16T14:44:45.931Z,7.80
2022-11-16T14:47:24.019Z,6.75
2022-11-16T14:49:50.311Z,4.53
2022-11-16T14:52:18.293Z,6.38
2022-11-16T14:55:04.537Z,5.25
2022-11-16T14:57:30.357Z,5.85
2022-11-16T15:00:24.083Z,4.00
2022-11-16T15:02:57.670Z,5.45
2022-11-16T15:05:31.894Z,6.63
2022-11-16T15:07:59.399Z,7.00
2022-11-16T15:10:28.504Z,8.55
2022-11-16T15:12:56.799Z,8.00
2022-11-16T15:15:28.812Z,12.18
2022-11-16T15:18:03.239Z,6.95
2022-11-16T15:20:33.186Z,7.53
2022-11-16T15:23:00.830Z,7.63
2022-11-16T15:25:30.495Z,5.97
2022-11-16T15:27:58.824Z,3.38
2022-11-16T15:30:32.242Z,6.22
2022-11-16T15:32:58.201Z,4.30
2022-11-16T15:35:30.889Z,5.28
2022-11-16T15:38:22.735Z,5.75
2022-11-16T15:43:18.482Z,4.93
2022-11-16T15:45:45.158Z,4.03
2022-11-16T15:48:17.151Z,4.35
2022-11-16T15:51:06.402Z,4.68
2022-11-16T15:53:39.514Z,5.00
2022-11-16T15:56:10.809Z,7.82
2022-11-16T15:58:38.507Z,5.93
2022-11-16T16:01:04.777Z,6.00
2022-11-16T16:03:34.384Z,5.13
2022-11-16T16:06:01.027Z,4.47
2022-11-16T16:08:29.389Z,4.15
2022-11-16T16:11:23.993Z,5.57
2022-11-16T16:13:59.143Z,8.85
2022-11-16T16:16:36.692Z,19.60
2022-11-16T16:19:09.715Z,13.25
2022-11-16T16:21:54.454Z,11.50
2022-11-16T16:24:37.440Z,7.75
2022-11-16T16:27:18.396Z,8.07
2022-11-16T16:29:45.559Z,9.27
2022-11-16T16:32:28.878Z,17.02
2022-11-16T16:35:00.059Z,19.52
2022-11-16T16:37:28.000Z,22.63
2022-11-16T16:39:53.757Z,14.27
2022-11-16T16:42:19.472Z,13.15
2022-11-16T16:44:46.846Z,18.27
2022-11-16T16:47:13.614Z,26.23
2022-11-16T16:49:39.893Z,24.40
2022-11-16T16:52:07.028Z,24.65
2022-11-16T16:54:33.306Z,14.00
2022-11-16T16:57:01.621Z,15.10
2022-11-16T16:59:29.198Z,12.95
2022-11-16T17:01:56.024Z,12.60
2022-11-16T17:04:21.803Z,17.92
2022-11-16T17:06:50.239Z,22.52
2022-11-16T17:09:15.974Z,21.27
2022-11-16T17:11:41.661Z,20.35
2022-11-16T17:14:07.395Z,18.63
2022-11-16T17:16:34.231Z,18.73
2022-11-16T17:19:00.181Z,17.35
2022-11-16T17:21:26.260Z,16.02
2022-11-16T17:23:52.167Z,23.55
2022-11-16T17:26:19.431Z,23.05
2022-11-16T17:28:45.991Z,18.88
2022-11-16T17:31:12.761Z,22.88
2022-11-16T17:33:40.611Z,26.52
2022-11-16T17:36:09.830Z,27.20
2022-11-16T17:38:35.635Z,25.75
2022-11-16T17:41:13.256Z,22.80
2022-11-16T17:43:40.137Z,20.08
2022-11-16T17:46:16.923Z,18.48
2022-11-16T17:48:44.219Z,15.57
2022-11-16T17:51:11.011Z,19.92
2022-11-16T17:53:37.385Z,19.25
2022-11-16T17:56:03.581Z,20.38
2022-11-16T17:58:30.311Z,25.15
2022-11-16T18:00:56.556Z,21.73
2022-11-16T18:03:26.239Z,23.75
2022-11-16T18:05:52.139Z,20.25
2022-11-16T18:08:17.815Z,20.67
2022-11-16T18:10:43.876Z,22.25
2022-11-16T18:13:09.840Z,23.42
2022-11-16T18:15:41.973Z,19.35
2022-11-16T18:18:08.155Z,27.65
2022-11-16T18:20:36.252Z,21.40
2022-11-16T18:23:02.348Z,22.75
2022-11-16T18:25:28.099Z,28.63
2022-11-16T18:27:54.544Z,28.08
2022-11-16T18:30:21.489Z,31.90
2022-11-16T18:32:48.044Z,28.45
2022-11-16T18:35:14.168Z,29.83
2022-11-16T18:37:39.952Z,28.75
2022-11-16T18:40:06.510Z,27.92
2022-11-16T18:42:32.191Z,24.27
2022-11-16T18:44:57.876Z,21.88
2022-11-16T18:47:23.605Z,19.38
2022-11-16T18:49:49.387Z,21.33
2022-11-16T18:52:15.066Z,21.30
2022-11-16T18:54:40.791Z,21.65
2022-11-16T18:57:06.548Z,20.00
2022-11-16T18:59:32.235Z,18.63
2022-11-16T19:01:57.934Z,17.30
2022-11-16T19:04:24.255Z,18.63
2022-11-16T19:06:50.095Z,16.38
2022-11-16T19:09:15.902Z,17.63
2022-11-16T19:11:41.618Z,17.60
2022-11-16T19:14:07.424Z,21.55
2022-11-16T19:16:33.245Z,23.83
2022-11-16T19:19:00.564Z,21.58
2022-11-16T19:21:26.664Z,18.27
2022-11-16T19:23:54.237Z,18.55
2022-11-16T19:28:47.920Z,20.55
2022-11-16T19:31:19.534Z,23.17
2022-11-16T19:33:45.806Z,24.17
2022-11-16T19:36:13.906Z,26.20
2022-11-16T19:38:40.312Z,25.83
2022-11-16T19:41:07.160Z,25.85
2022-11-16T19:43:33.741Z,31.55
2022-11-16T19:46:08.030Z,26.50
2022-11-16T19:48:34.224Z,25.27
2022-11-16T19:51:05.117Z,24.45
2022-11-16T19:53:31.842Z,24.48
2022-11-16T19:55:57.700Z,24.17
2022-11-16T19:58:23.395Z,25.48
2022-11-16T20:00:49.197Z,26.63
2022-11-16T20:03:14.928Z,26.98
2022-11-16T20:05:40.673Z,28.75
2022-11-16T20:08:06.472Z,29.13
2022-11-16T20:10:32.339Z,27.08
2022-11-16T20:12:58.276Z,26.17
2022-11-16T20:15:24.858Z,26.50
2022-11-16T20:17:53.452Z,26.75
2022-11-16T20:20:19.230Z,31.17
2022-11-16T20:22:46.950Z,29.30
2022-11-16T20:25:12.779Z,30.15
2022-11-16T20:27:38.478Z,23.65
2022-11-16T20:30:09.289Z,25.95
2022-11-16T20:32:35.519Z,24.17
2022-11-16T20:35:01.221Z,22.65
2022-11-16T20:37:26.955Z,21.60
2022-11-16T20:39:56.372Z,25.27
2022-11-16T20:42:22.777Z,24.58
2022-11-16T20:44:48.467Z,22.23
2022-11-16T20:47:14.165Z,22.50
2022-11-16T20:49:39.947Z,22.15
2022-11-16T20:52:05.665Z,24.95
2022-11-16T20:54:31.391Z,24.17
2022-11-16T20:56:57.076Z,24.35
2022-11-16T20:59:22.839Z,27.33
2022-11-16T21:01:51.650Z,22.73
2022-11-16T21:04:17.382Z,21.88
2022-11-16T21:06:43.833Z,22.08
2022-11-16T21:09:14.810Z,22.50
2022-11-16T21:11:58.789Z,25.00
2022-11-16T21:14:24.520Z,18.95
2022-11-16T21:16:50.203Z,20.15
2022-11-16T21:19:16.225Z,17.77
2022-11-16T21:21:41.893Z,14.60
2022-11-16T21:24:08.714Z,16.88
2022-11-16T21:26:36.302Z,20.15
2022-11-16T21:31:30.958Z,18.58
2022-11-16T21:33:57.347Z,15.18
2022-11-16T21:36:24.920Z,15.25
2022-11-16T21:41:18.645Z,14.95
2022-11-16T21:43:44.595Z,14.18
2022-11-16T21:46:12.726Z,17.70
2022-11-16T21:48:38.953Z,14.98
2022-11-16T21:51:13.310Z,16.02
2022-11-16T21:53:39.244Z,18.15
2022-11-16T21:56:06.771Z,16.23
2022-11-16T21:58:32.568Z,11.07
2022-11-16T22:01:00.748Z,18.13
2022-11-16T22:03:29.215Z,18.55
2022-11-16T22:06:16.949Z,17.65
2022-11-16T22:08:43.131Z,16.50
2022-11-16T22:11:09.324Z,16.85
2022-11-16T22:13:36.358Z,15.90
2022-11-16T22:16:06.446Z,16.38
2022-11-16T22:18:32.517Z,16.35
2022-11-16T22:20:59.531Z,17.40
2022-11-16T22:23:25.970Z,15.13
2022-11-16T22:25:51.891Z,15.20
2022-11-16T22:28:21.469Z,15.13
2022-11-16T22:30:51.596Z,15.93
2022-11-16T22:33:17.834Z,15.40
2022-11-16T22:35:45.951Z,16.02
2022-11-16T22:38:11.654Z,19.05
2022-11-16T22:40:37.434Z,15.73
2022-11-16T22:43:03.397Z,15.25
2022-11-16T22:45:29.069Z,13.95
2022-11-16T22:47:55.823Z,18.63
2022-11-16T22:50:23.285Z,15.32
2022-11-16T22:52:48.976Z,14.07
2022-11-16T22:55:14.890Z,16.02
2022-11-16T22:57:40.565Z,16.77
2022-11-16T23:00:09.186Z,16.77
2022-11-16T23:02:34.911Z,19.10
2022-11-16T23:05:00.585Z,17.10
2022-11-16T23:07:26.300Z,17.02
2022-11-16T23:09:52.036Z,19.58
2022-11-16T23:12:36.162Z,17.50
2022-11-16T23:15:20.504Z,16.92
2022-11-16T23:17:46.183Z,16.98
2022-11-16T23:20:30.213Z,18.90
2022-11-16T23:23:14.433Z,18.90
2022-11-16T23:25:58.749Z,17.85
2022-11-16T23:28:24.701Z,18.58
2022-11-16T23:30:50.483Z,18.75
2022-11-16T23:33:16.294Z,17.58
2022-11-16T23:35:42.146Z,20.50
2022-11-16T23:38:08.016Z,17.35
2022-11-16T23:40:39.119Z,16.23
2022-11-16T23:43:24.589Z,17.80
2022-11-16T23:45:50.862Z,17.67
2022-11-16T23:48:17.799Z,17.25
2022-11-16T23:50:45.027Z,17.88
2022-11-16T23:53:11.849Z,15.32
2022-11-16T23:55:38.868Z,19.20
2022-11-16T23:58:05.793Z,16.73
